createdAt,value
2022-12-08T00:01:11.985Z,97958.44
2022-12-08T00:03:40.085Z,97957.97
2022-12-08T00:06:47.481Z,97950.06
2022-12-08T00:09:39.004Z,97948.34
2022-12-08T00:12:18.132Z,97942.28
2022-12-08T00:14:47.092Z,97941.63
2022-12-08T00:17:16.411Z,97951.25
2022-12-08T00:19:44.059Z,97951.25
2022-12-08T00:22:12.846Z,97952.50
2022-12-08T00:24:41.432Z,97944.88
2022-12-08T00:27:09.919Z,97947.75
2022-12-08T00:29:37.133Z,97948.34
2022-12-08T00:32:05.106Z,97951.16
2022-12-08T00:34:32.917Z,97943.66
2022-12-08T00:37:00.072Z,97941.03
2022-12-08T00:39:27.136Z,97951.03
2022-12-08T00:42:12.835Z,97935.38
2022-12-08T00:44:44.106Z,97938.03
2022-12-08T00:47:12.713Z,97937.78
2022-12-08T00:49:39.793Z,97937.59
2022-12-08T00:52:07.259Z,97932.59
2022-12-08T00:54:35.303Z,97926.47
2022-12-08T00:57:02.731Z,97925.22
2022-12-08T00:59:30.103Z,97925.63
2022-12-08T01:01:57.255Z,97931.16
2022-12-08T01:04:24.328Z,97929.78
2022-12-08T01:06:52.560Z,97921.69
2022-12-08T01:09:19.623Z,97917.88
2022-12-08T01:11:47.970Z,97924.47
2022-12-08T01:14:15.239Z,97931.41
2022-12-08T01:16:42.418Z,97932.22
2022-12-08T01:19:12.088Z,97926.03
2022-12-08T01:21:40.201Z,97919.16
2022-12-08T01:24:09.578Z,97916.41
2022-12-08T01:26:36.910Z,97925.88
2022-12-08T01:29:03.840Z,97921.00
2022-12-08T01:31:30.865Z,97923.78
2022-12-08T01:33:58.690Z,97923.94
2022-12-08T01:36:36.935Z,97930.94
2022-12-08T01:39:07.971Z,97926.72
2022-12-08T01:41:37.650Z,97926.03
2022-12-08T01:44:16.320Z,97923.56
2022-12-08T01:46:48.484Z,97925.09
2022-12-08T01:49:26.280Z,97927.22
2022-12-08T01:52:34.548Z,97923.91
2022-12-08T01:55:15.810Z,97922.59
2022-12-08T01:58:03.652Z,97915.34
2022-12-08T02:00:31.096Z,97914.38
2022-12-08T02:02:59.909Z,97912.94
2022-12-08T02:05:33.382Z,97908.84
2022-12-08T02:08:04.574Z,97906.53
2022-12-08T02:10:34.631Z,97909.03
2022-12-08T02:13:02.018Z,97903.69
2022-12-08T02:15:36.236Z,97900.69
2022-12-08T02:18:19.358Z,97895.88
2022-12-08T02:21:24.472Z,97899.56
2022-12-08T02:24:03.768Z,97900.88
2022-12-08T02:26:41.968Z,97896.94
2022-12-08T02:29:26.002Z,97890.41
2022-12-08T02:32:09.636Z,97883.59
2022-12-08T02:35:12.240Z,97882.94
2022-12-08T02:37:53.542Z,97882.72
2022-12-08T02:40:28.799Z,97881.63
2022-12-08T02:43:03.752Z,97878.97
2022-12-08T02:45:36.247Z,97877.41
2022-12-08T02:48:03.643Z,97871.72
2022-12-08T02:50:30.614Z,97869.31
2022-12-08T02:52:57.683Z,97867.88
2022-12-08T02:55:57.311Z,97877.28
2022-12-08T02:58:48.766Z,97865.34
2022-12-08T03:01:45.798Z,97871.09
2022-12-08T03:04:30.892Z,97868.94
2022-12-08T03:07:36.384Z,97854.22
2022-12-08T03:10:37.516Z,97855.31
2022-12-08T03:13:14.891Z,97854.47
2022-12-08T03:15:45.255Z,97855.31
2022-12-08T03:18:16.309Z,97852.78
2022-12-08T03:20:46.203Z,97848.78
2022-12-08T03:23:16.121Z,97842.25
2022-12-08T03:25:59.710Z,97847.94
2022-12-08T03:28:26.954Z,97840.25
2022-12-08T03:30:57.227Z,97836.66
2022-12-08T03:33:30.670Z,97842.34
2022-12-08T03:35:58.794Z,97840.69
2022-12-08T03:38:26.171Z,97833.53
2022-12-08T03:41:16.652Z,97831.38
2022-12-08T03:43:43.950Z,97831.53
2022-12-08T03:46:11.284Z,97818.31
2022-12-08T03:48:38.626Z,97815.91
2022-12-08T03:51:05.952Z,97818.38
2022-12-08T03:53:32.959Z,97815.69
2022-12-08T03:55:59.901Z,97808.09
2022-12-08T03:58:27.169Z,97812.31
2022-12-08T04:00:54.527Z,97814.91
2022-12-08T04:03:21.567Z,97807.94
2022-12-08T04:05:48.988Z,97807.34
2022-12-08T04:08:16.365Z,97806.09
2022-12-08T04:10:43.808Z,97807.34
2022-12-08T04:13:11.148Z,97806.22
2022-12-08T04:15:38.191Z,97814.38
2022-12-08T04:18:05.499Z,97810.25
2022-12-08T04:20:32.884Z,97809.72
2022-12-08T04:23:00.242Z,97801.03
2022-12-08T04:25:27.764Z,97788.47
2022-12-08T04:27:56.297Z,97802.59
2022-12-08T04:30:23.698Z,97806.31
2022-12-08T04:32:51.041Z,97799.41
2022-12-08T04:35:18.367Z,97800.69
2022-12-08T04:37:45.716Z,97797.72
2022-12-08T04:40:13.623Z,97798.75
2022-12-08T04:42:41.011Z,97795.44
2022-12-08T04:45:08.731Z,97798.31
2022-12-08T04:47:36.059Z,97798.28
2022-12-08T04:50:04.548Z,97789.81
2022-12-08T04:52:31.757Z,97790.75
2022-12-08T04:54:58.680Z,97790.56
2022-12-08T04:57:25.678Z,97784.56
2022-12-08T04:59:52.830Z,97781.97
2022-12-08T05:02:19.878Z,97779.47
2022-12-08T05:04:47.379Z,97778.56
2022-12-08T05:07:14.311Z,97777.22
2022-12-08T05:09:41.299Z,97777.19
2022-12-08T05:12:08.615Z,97782.56
2022-12-08T05:14:35.567Z,97785.38
2022-12-08T05:17:07.730Z,97774.34
2022-12-08T05:19:37.001Z,97772.47
2022-12-08T05:22:03.997Z,97772.63
2022-12-08T05:24:30.958Z,97778.66
2022-12-08T05:26:58.260Z,97773.97
2022-12-08T05:29:25.238Z,97773.97
2022-12-08T05:31:52.285Z,97778.44
2022-12-08T05:34:19.324Z,97775.34
2022-12-08T05:36:46.284Z,97769.16
2022-12-08T05:39:14.569Z,97776.59
2022-12-08T05:41:42.282Z,97772.00
2022-12-08T05:44:09.320Z,97765.94
2022-12-08T05:46:36.715Z,97770.22
2022-12-08T05:49:04.618Z,97773.13
2022-12-08T05:51:31.605Z,97769.53
2022-12-08T05:53:58.789Z,97771.28
2022-12-08T05:56:27.135Z,97771.28
2022-12-08T05:58:55.075Z,97767.72
2022-12-08T06:01:28.998Z,97768.38
2022-12-08T06:03:57.277Z,97768.28
2022-12-08T06:06:24.767Z,97755.91
2022-12-08T06:08:52.231Z,97762.09
2022-12-08T06:11:25.400Z,97766.63
2022-12-08T06:13:53.240Z,97764.66
2022-12-08T06:16:20.286Z,97770.09
2022-12-08T06:18:47.706Z,97760.44
2022-12-08T06:21:16.364Z,97768.28
2022-12-08T06:23:44.280Z,97771.72
2022-12-08T06:26:14.750Z,97765.63
2022-12-08T06:28:42.684Z,97764.69
2022-12-08T06:31:12.104Z,97766.88
2022-12-08T06:33:39.538Z,97770.88
2022-12-08T06:36:07.474Z,97777.28
2022-12-08T06:38:38.210Z,97774.81
2022-12-08T06:41:09.336Z,97772.97
2022-12-08T06:43:36.795Z,97770.00
2022-12-08T06:46:08.127Z,97772.41
2022-12-08T06:48:35.195Z,97775.91
2022-12-08T06:51:10.189Z,97774.34
2022-12-08T06:53:38.339Z,97783.63
2022-12-08T06:56:06.106Z,97778.72
2022-12-08T06:58:33.630Z,97787.56
2022-12-08T07:01:10.674Z,97782.69
2022-12-08T07:03:39.208Z,97781.78
2022-12-08T07:06:07.122Z,97786.66
2022-12-08T07:08:35.184Z,97788.50
2022-12-08T07:11:18.082Z,97784.63
2022-12-08T07:13:48.058Z,97779.78
2022-12-08T07:16:15.204Z,97785.25
2022-12-08T07:18:43.029Z,97784.00
2022-12-08T07:21:13.237Z,97781.34
2022-12-08T07:23:40.631Z,97785.41
2022-12-08T07:26:10.624Z,97787.84
2022-12-08T07:28:40.804Z,97792.19
2022-12-08T07:31:15.911Z,97786.81
2022-12-08T07:33:43.246Z,97776.13
2022-12-08T07:36:10.240Z,97779.13
2022-12-08T07:38:37.232Z,97784.09
2022-12-08T07:41:04.359Z,97783.34
2022-12-08T07:43:31.294Z,97779.03
2022-12-08T07:45:58.270Z,97774.91
2022-12-08T07:48:25.318Z,97779.75
2022-12-08T07:51:00.148Z,97774.19
2022-12-08T07:53:27.107Z,97771.16
2022-12-08T07:55:54.100Z,97766.78
2022-12-08T07:58:21.067Z,97761.69
2022-12-08T08:00:48.035Z,97768.66
2022-12-08T08:03:15.272Z,97768.72
2022-12-08T08:05:43.498Z,97763.38
2022-12-08T08:08:11.329Z,97758.22
2022-12-08T08:10:38.322Z,97760.34
2022-12-08T08:13:05.335Z,97752.19
2022-12-08T08:15:32.400Z,97744.47
2022-12-08T08:17:59.415Z,97748.25
2022-12-08T08:20:26.556Z,97747.59
2022-12-08T08:22:53.564Z,97738.00
2022-12-08T08:25:22.724Z,97739.81
2022-12-08T08:27:50.437Z,97728.00
2022-12-08T08:30:20.762Z,97733.63
2022-12-08T08:32:49.598Z,97735.13
2022-12-08T08:35:17.277Z,97736.38
2022-12-08T08:37:48.614Z,97746.16
2022-12-08T08:40:17.880Z,97743.97
2022-12-08T08:42:44.852Z,97756.72
2022-12-08T08:45:12.171Z,97768.41
2022-12-08T08:47:39.137Z,97768.75
2022-12-08T08:50:07.772Z,97767.72
2022-12-08T08:52:35.001Z,97773.59
2022-12-08T08:55:02.197Z,97776.06
2022-12-08T08:57:29.185Z,97775.63
2022-12-08T08:59:56.147Z,97776.66
2022-12-08T09:02:23.475Z,97776.31
2022-12-08T09:04:51.405Z,97775.72
2022-12-08T09:07:18.511Z,97768.94
2022-12-08T09:09:45.455Z,97775.84
2022-12-08T09:12:13.508Z,97767.69
2022-12-08T09:14:40.643Z,97763.84
2022-12-08T09:17:08.573Z,97762.00
2022-12-08T09:19:35.586Z,97767.28
2022-12-08T09:22:02.626Z,97769.88
2022-12-08T09:24:29.603Z,97775.25
2022-12-08T09:26:57.005Z,97765.19
2022-12-08T09:29:25.565Z,97773.69
2022-12-08T09:31:54.682Z,97759.59
2022-12-08T09:34:21.742Z,97760.91
2022-12-08T09:36:48.684Z,97762.59
2022-12-08T09:39:15.650Z,97772.69
2022-12-08T09:41:48.373Z,97762.94
2022-12-08T09:45:09.768Z,97770.94
2022-12-08T09:47:48.788Z,97762.78
2022-12-08T09:50:30.742Z,97768.06
2022-12-08T09:53:13.660Z,97748.25
2022-12-08T09:55:47.181Z,97747.59
2022-12-08T09:58:29.534Z,97749.53
2022-12-08T10:00:56.624Z,97746.38
2022-12-08T10:03:30.053Z,97738.69
2022-12-08T10:06:33.288Z,97739.13
2022-12-08T10:09:34.444Z,97733.34
2022-12-08T10:12:23.990Z,97720.19
2022-12-08T10:15:18.564Z,97726.34
2022-12-08T10:17:49.455Z,97719.56
2022-12-08T10:20:23.533Z,97718.53
2022-12-08T10:22:58.520Z,97719.22
2022-12-08T10:25:35.217Z,97711.09
2022-12-08T10:28:02.387Z,97702.00
2022-12-08T10:30:31.630Z,97707.88
2022-12-08T10:32:58.668Z,97712.22
2022-12-08T10:35:43.084Z,97703.22
2022-12-08T10:38:24.061Z,97701.56
2022-12-08T10:41:04.138Z,97702.50
2022-12-08T10:43:32.148Z,97704.81
2022-12-08T10:46:13.650Z,97695.97
2022-12-08T10:49:03.237Z,97684.75
2022-12-08T10:51:30.434Z,97684.47
2022-12-08T10:53:57.573Z,97694.41
2022-12-08T10:56:31.003Z,97697.19
2022-12-08T10:59:19.226Z,97698.41
2022-12-08T11:01:51.985Z,97692.56
2022-12-08T11:04:23.308Z,97691.34
2022-12-08T11:06:51.742Z,97685.25
2022-12-08T11:09:18.649Z,97681.88
2022-12-08T11:11:45.489Z,97682.91
2022-12-08T11:14:44.197Z,97663.91
2022-12-08T11:17:17.097Z,97672.38
2022-12-08T11:19:57.865Z,97661.25
2022-12-08T11:22:32.672Z,97654.28
2022-12-08T11:24:59.919Z,97655.81
2022-12-08T11:27:27.272Z,97658.34
2022-12-08T11:29:54.425Z,97659.31
2022-12-08T11:32:22.560Z,97652.97
2022-12-08T11:34:59.388Z,97645.78
2022-12-08T11:37:36.064Z,97636.94
2022-12-08T11:40:23.243Z,97635.91
2022-12-08T11:43:12.250Z,97632.75
2022-12-08T11:45:41.792Z,97627.97
2022-12-08T11:48:26.705Z,97633.78
2022-12-08T11:51:04.071Z,97632.09
2022-12-08T11:53:49.267Z,97630.22
2022-12-08T11:56:29.613Z,97627.31
2022-12-08T11:59:03.153Z,97623.00
2022-12-08T12:01:30.258Z,97623.31
2022-12-08T12:04:27.671Z,97620.66
2022-12-08T12:07:52.156Z,97625.84
2022-12-08T12:10:52.761Z,97624.00
2022-12-08T12:13:37.640Z,97619.44
2022-12-08T12:16:41.856Z,97616.09
2022-12-08T12:19:18.615Z,97621.66
2022-12-08T12:22:06.856Z,97618.28
2022-12-08T12:24:37.736Z,97608.31
2022-12-08T12:27:16.456Z,97619.09
2022-12-08T12:30:07.306Z,97610.53
2022-12-08T12:33:03.725Z,97618.00
2022-12-08T12:35:40.923Z,97605.50
2022-12-08T12:38:37.818Z,97604.22
2022-12-08T12:41:07.436Z,97608.31
2022-12-08T12:43:37.939Z,97603.28
2022-12-08T12:46:41.848Z,97604.03
2022-12-08T12:49:40.030Z,97592.09
2022-12-08T12:52:09.636Z,97591.47
2022-12-08T12:54:36.624Z,97581.53
2022-12-08T12:57:25.788Z,97584.00
2022-12-08T12:59:55.478Z,97583.09
2022-12-08T13:02:39.980Z,97580.41
2022-12-08T13:05:16.782Z,97577.03
2022-12-08T13:08:02.132Z,97569.47
2022-12-08T13:10:41.252Z,97578.84
2022-12-08T13:13:18.687Z,97562.22
2022-12-08T13:16:18.469Z,97565.91
2022-12-08T13:18:51.500Z,97570.13
2022-12-08T13:21:23.984Z,97557.56
2022-12-08T13:24:13.041Z,97562.47
2022-12-08T13:27:03.323Z,97551.44
2022-12-08T13:29:32.115Z,97562.63
2022-12-08T13:32:04.929Z,97560.94
2022-12-08T13:34:36.896Z,97560.50
2022-12-08T13:37:31.856Z,97557.06
2022-12-08T13:40:06.327Z,97562.13
2022-12-08T13:43:05.891Z,97553.84
2022-12-08T13:46:20.232Z,97556.19
2022-12-08T13:50:23.361Z,97561.84
2022-12-08T13:53:49.491Z,97564.44
2022-12-08T13:55:49.659Z,97548.63
2022-12-08T13:57:37.193Z,97549.38
2022-12-08T14:00:19.700Z,97557.75
2022-12-08T14:02:50.262Z,97560.06
2022-12-08T14:05:35.221Z,97557.00
2022-12-08T14:08:50.416Z,97550.34
2022-12-08T14:11:08.849Z,97552.13
2022-12-08T14:13:35.894Z,97549.75
2022-12-08T14:16:02.952Z,97551.13
2022-12-08T14:18:31.729Z,97551.13
2022-12-08T14:21:27.883Z,97558.31
2022-12-08T14:24:03.131Z,97553.25
2022-12-08T14:26:34.436Z,97552.03
2022-12-08T14:29:02.032Z,97550.75
2022-12-08T14:31:29.446Z,97549.38
2022-12-08T14:33:56.794Z,97556.19
2022-12-08T14:36:23.971Z,97544.25
2022-12-08T14:38:54.719Z,97549.06
2022-12-08T14:41:28.059Z,97554.38
2022-12-08T14:44:01.226Z,97555.59
2022-12-08T14:46:28.871Z,97559.53
2022-12-08T14:48:57.070Z,97559.91
2022-12-08T14:51:32.906Z,97569.50
2022-12-08T14:54:13.335Z,97558.31
2022-12-08T14:56:50.345Z,97562.78
2022-12-08T14:59:31.604Z,97564.47
2022-12-08T15:02:34.504Z,97561.59
2022-12-08T15:05:12.285Z,97561.78
2022-12-08T15:07:50.518Z,97565.31
2022-12-08T15:10:17.441Z,97563.19
2022-12-08T15:13:08.791Z,97559.63
2022-12-08T15:15:57.882Z,97559.81
2022-12-08T15:18:38.512Z,97562.06
2022-12-08T15:21:09.112Z,97563.09
2022-12-08T15:23:46.503Z,97554.59
2022-12-08T15:26:42.458Z,97552.94
2022-12-08T15:29:28.857Z,97555.63
2022-12-08T15:31:59.955Z,97556.47
2022-12-08T15:34:27.186Z,97553.84
2022-12-08T15:36:55.375Z,97559.00
2022-12-08T15:39:31.877Z,97555.75
2022-12-08T15:42:00.210Z,97555.00
2022-12-08T15:44:27.642Z,97557.69
2022-12-08T15:46:55.155Z,97550.06
2022-12-08T15:49:24.367Z,97551.72
2022-12-08T15:51:57.388Z,97556.09
2022-12-08T15:54:31.866Z,97557.22
2022-12-08T15:59:46.124Z,97549.66
2022-12-08T16:02:18.007Z,97550.53
2022-12-08T16:07:38.164Z,97544.63
2022-12-08T16:10:07.609Z,97541.09
2022-12-08T16:16:00.765Z,97534.56
2022-12-08T16:18:34.391Z,97535.69
2022-12-08T16:21:41.768Z,97532.13
2022-12-08T16:23:49.116Z,97522.09
2022-12-08T16:26:49.115Z,97528.41
2022-12-08T16:29:08.431Z,97525.91
2022-12-08T16:31:35.568Z,97526.47
2022-12-08T16:34:02.779Z,97523.19
2022-12-08T16:36:29.751Z,97528.34
2022-12-08T16:38:56.735Z,97527.94
2022-12-08T16:41:42.267Z,97529.53
2022-12-08T16:44:09.869Z,97531.59
2022-12-08T16:46:37.184Z,97521.34
2022-12-08T16:49:08.402Z,97515.84
2022-12-08T16:51:35.464Z,97522.66
2022-12-08T16:54:02.398Z,97522.00
2022-12-08T16:56:33.094Z,97519.28
2022-12-08T16:59:02.021Z,97517.31
2022-12-08T17:01:29.374Z,97514.72
2022-12-08T17:04:29.350Z,97513.03
2022-12-08T17:06:43.383Z,97510.31
2022-12-08T17:09:10.292Z,97511.16
2022-12-08T17:11:42.611Z,97518.34
2022-12-08T17:14:12.430Z,97515.91
2022-12-08T17:16:40.418Z,97518.59
2022-12-08T17:19:07.772Z,97522.78
2022-12-08T17:21:34.868Z,97515.25
2022-12-08T17:24:01.781Z,97514.03
2022-12-08T17:26:28.746Z,97512.78
2022-12-08T17:29:02.765Z,97514.44
2022-12-08T17:31:32.532Z,97509.25
2022-12-08T17:34:05.487Z,97502.44
2022-12-08T17:36:32.649Z,97507.66
2022-12-08T17:39:01.113Z,97503.47
2022-12-08T17:41:29.164Z,97500.84
2022-12-08T17:43:56.466Z,97500.84
2022-12-08T17:46:23.868Z,97496.84
2022-12-08T17:48:51.075Z,97499.09
2022-12-08T17:51:18.576Z,97505.41
2022-12-08T17:53:45.537Z,97505.34
2022-12-08T17:56:21.484Z,97508.81
2022-12-08T17:58:54.373Z,97507.25
2022-12-08T18:01:23.885Z,97504.38
2022-12-08T18:03:51.636Z,97504.75
2022-12-08T18:06:18.640Z,97507.66
2022-12-08T18:08:45.842Z,97507.03
2022-12-08T18:11:19.795Z,97511.19
2022-12-08T18:13:52.035Z,97514.06
2022-12-08T18:16:21.648Z,97518.44
2022-12-08T18:18:49.149Z,97522.06
2022-12-08T18:21:23.049Z,97515.28
2022-12-08T18:23:51.229Z,97517.31
2022-12-08T18:26:18.211Z,97516.63
2022-12-08T18:28:45.177Z,97518.59
2022-12-08T18:31:19.007Z,97516.88
2022-12-08T18:33:48.285Z,97510.09
2022-12-08T18:36:25.905Z,97496.88
2022-12-08T18:38:53.447Z,97501.53
2022-12-08T18:41:24.572Z,97498.13
2022-12-08T18:43:53.203Z,97497.63
2022-12-08T18:46:20.277Z,97496.31
2022-12-08T18:48:49.666Z,97501.53
2022-12-08T18:51:20.523Z,97497.75
2022-12-08T18:53:48.592Z,97494.66
2022-12-08T18:56:35.323Z,97495.59
2022-12-08T18:59:10.733Z,97501.53
2022-12-08T19:01:39.701Z,97504.53
2022-12-08T19:04:27.825Z,97501.38
2022-12-08T19:06:56.381Z,97492.69
2022-12-08T19:09:26.898Z,97484.59
2022-12-08T19:11:55.061Z,97478.38
2022-12-08T19:14:27.879Z,97470.38
2022-12-08T19:16:55.370Z,97475.38
2022-12-08T19:19:22.412Z,97477.63
2022-12-08T19:21:49.719Z,97473.91
2022-12-08T19:24:16.723Z,97469.59
2022-12-08T19:26:44.225Z,97478.72
2022-12-08T19:29:12.368Z,97474.00
2022-12-08T19:31:40.206Z,97471.59
2022-12-08T19:34:09.193Z,97472.16
2022-12-08T19:36:42.160Z,97466.28
2022-12-08T19:39:37.898Z,97468.25
2022-12-08T19:42:38.223Z,97476.78
2022-12-08T19:45:15.885Z,97476.22
2022-12-08T19:47:43.330Z,97480.66
2022-12-08T19:50:31.769Z,97481.19
2022-12-08T19:52:59.541Z,97478.50
2022-12-08T19:55:27.004Z,97472.03
2022-12-08T19:57:56.607Z,97478.84
2022-12-08T20:00:23.931Z,97477.25
2022-12-08T20:02:51.401Z,97471.31
2022-12-08T20:05:18.690Z,97464.78
2022-12-08T20:07:45.777Z,97457.31
2022-12-08T20:10:21.944Z,97449.25
2022-12-08T20:12:48.976Z,97450.06
2022-12-08T20:15:16.037Z,97454.28
2022-12-08T20:17:43.484Z,97450.13
2022-12-08T20:20:12.417Z,97446.50
2022-12-08T20:22:39.648Z,97446.81
2022-12-08T20:25:07.611Z,97449.56
2022-12-08T20:27:34.672Z,97448.88
2022-12-08T20:30:01.625Z,97452.00
2022-12-08T20:32:28.630Z,97451.59
2022-12-08T20:34:55.643Z,97450.50
2022-12-08T20:37:22.646Z,97455.41
2022-12-08T20:39:49.675Z,97450.19
2022-12-08T20:42:16.757Z,97446.38
2022-12-08T20:44:44.501Z,97451.75
2022-12-08T20:47:13.147Z,97451.16
2022-12-08T20:49:40.340Z,97445.25
2022-12-08T20:52:08.558Z,97454.81
2022-12-08T20:54:37.072Z,97454.28
2022-12-08T20:57:04.652Z,97452.84
2022-12-08T20:59:32.117Z,97452.47
2022-12-08T21:02:00.413Z,97450.94
2022-12-08T21:04:28.144Z,97449.44
2022-12-08T21:06:55.414Z,97447.09
2022-12-08T21:09:22.669Z,97443.19
2022-12-08T21:11:50.107Z,97445.56
2022-12-08T21:14:17.077Z,97440.91
2022-12-08T21:16:44.288Z,97442.13
2022-12-08T21:19:12.207Z,97442.84
2022-12-08T21:21:39.377Z,97448.19
2022-12-08T21:24:07.206Z,97437.59
2022-12-08T21:26:34.518Z,97443.44
2022-12-08T21:29:01.516Z,97442.00
2022-12-08T21:31:31.816Z,97436.41
2022-12-08T21:33:59.897Z,97439.16
2022-12-08T21:36:27.170Z,97432.44
2022-12-08T21:38:55.008Z,97431.03
2022-12-08T21:41:42.606Z,97432.88
2022-12-08T21:44:18.716Z,97433.06
2022-12-08T21:46:45.985Z,97439.50
2022-12-08T21:49:13.240Z,97438.00
2022-12-08T21:51:42.302Z,97440.59
2022-12-08T21:54:18.046Z,97427.78
2022-12-08T21:56:47.256Z,97439.09
2022-12-08T21:59:15.342Z,97451.94
2022-12-08T22:01:45.300Z,97443.63
2022-12-08T22:04:17.658Z,97442.03
2022-12-08T22:06:44.958Z,97437.81
2022-12-08T22:09:13.448Z,97436.69
2022-12-08T22:11:41.745Z,97450.75
2022-12-08T22:14:14.074Z,97450.22
2022-12-08T22:16:43.064Z,97455.84
2022-12-08T22:19:10.712Z,97453.78
2022-12-08T22:21:38.224Z,97454.88
2022-12-08T22:24:05.827Z,97445.28
2022-12-08T22:26:33.210Z,97450.34
2022-12-08T22:29:00.453Z,97451.44
2022-12-08T22:31:27.817Z,97451.38
2022-12-08T22:33:54.963Z,97447.38
2022-12-08T22:36:24.636Z,97440.41
2022-12-08T22:38:53.448Z,97439.63
2022-12-08T22:41:21.644Z,97436.03
2022-12-08T22:43:49.742Z,97440.53
2022-12-08T22:46:23.429Z,97437.56
2022-12-08T22:48:51.883Z,97433.41
2022-12-08T22:51:19.387Z,97430.13
2022-12-08T22:53:47.225Z,97428.28
2022-12-08T22:56:16.155Z,97425.00
2022-12-08T22:58:44.510Z,97420.97
2022-12-08T23:01:27.222Z,97419.94
2022-12-08T23:03:54.983Z,97419.81
2022-12-08T23:06:22.148Z,97417.84
2022-12-08T23:08:49.807Z,97414.13
2022-12-08T23:11:17.616Z,97423.88
2022-12-08T23:13:44.986Z,97419.13
2022-12-08T23:16:13.130Z,97416.91
2022-12-08T23:18:45.477Z,97412.81
2022-12-08T23:21:19.905Z,97409.28
2022-12-08T23:23:47.320Z,97413.81
2022-12-08T23:26:24.255Z,97409.63
2022-12-08T23:28:51.891Z,97407.34
2022-12-08T23:31:20.170Z,97408.75
2022-12-08T23:33:47.864Z,97410.03
2022-12-08T23:36:16.679Z,97401.31
2022-12-08T23:38:44.261Z,97392.34
2022-12-08T23:41:14.204Z,97387.78
2022-12-08T23:43:47.308Z,97387.31
2022-12-08T23:46:16.263Z,97388.56
2022-12-08T23:48:43.764Z,97384.22
2022-12-08T23:51:11.785Z,97387.38
2022-12-08T23:53:39.132Z,97381.06
2022-12-08T23:56:10.607Z,97380.13
2022-12-08T23:58:38.609Z,97371.63
